Time;durP1;ratioP1;P1;durP2;ratioP2;P2;SDS_P1;SDS_P2;PMS_P1;PMS_P2;Temp;Humidity;BMP_temperature;BMP_pressure;BME280_temperature;BME280_humidity;BME280_pressure;Samples;Min_cycle;Max_cycle;Signal;HPM_P1;HPM_P2
2021/05/15 00:01:04;;;;;;;5.03;1.00;;;13.60;68.40;;;;;;5011651;28;20452;-47
2021/05/15 00:03:30;;;;;;;2.70;0.97;;;13.60;68.60;;;;;;5007797;28;20453;-48
2021/05/15 00:05:55;;;;;;;2.10;1.30;;;13.50;68.80;;;;;;5012277;28;20474;-48
2021/05/15 00:08:21;;;;;;;1.67;0.80;;;13.50;69.20;;;;;;5025729;28;20198;-48
2021/05/15 00:10:49;;;;;;;4.70;1.40;;;13.50;69.40;;;;;;5007293;28;20225;-48
2021/05/15 00:13:16;;;;;;;0.90;0.70;;;13.50;69.20;;;;;;5013106;28;20193;-48
2021/05/15 00:15:42;;;;;;;1.80;1.20;;;13.50;69.30;;;;;;5013536;28;20467;-48
2021/05/15 00:18:07;;;;;;;2.77;1.20;;;13.50;69.30;;;;;;5011587;28;20451;-48
2021/05/15 00:20:35;;;;;;;1.40;0.90;;;13.50;69.50;;;;;;5009272;28;20454;-48
2021/05/15 00:23:01;;;;;;;1.20;0.80;;;13.50;69.30;;;;;;5015299;28;20200;-48
2021/05/15 00:25:27;;;;;;;1.20;1.10;;;13.50;69.20;;;;;;5044817;28;20506;-47
2021/05/15 00:27:53;;;;;;;1.53;1.13;;;13.50;68.90;;;;;;5007524;28;21408;-47
2021/05/15 00:30:21;;;;;;;2.17;1.10;;;13.50;69.00;;;;;;5012035;28;20239;-48
2021/05/15 00:32:46;;;;;;;1.20;1.10;;;13.50;69.40;;;;;;5013192;28;20282;-48
2021/05/15 00:35:12;;;;;;;3.27;1.17;;;13.40;69.70;;;;;;5013134;28;20948;-48
2021/05/15 00:37:39;;;;;;;0.93;0.93;;;13.40;69.80;;;;;;5011533;28;20267;-48
2021/05/15 00:40:11;;;;;;;1.20;1.10;;;13.40;70.00;;;;;;5011800;28;20926;-48
2021/05/15 00:42:40;;;;;;;1.20;1.10;;;13.30;70.20;;;;;;5008374;28;20440;-48
2021/05/15 00:45:09;;;;;;;1.60;1.50;;;13.30;70.30;;;;;;5015956;28;20471;-48
2021/05/15 00:47:35;;;;;;;1.83;1.20;;;13.20;70.60;;;;;;5012624;28;20991;-48
2021/05/15 00:50:03;;;;;;;2.90;1.23;;;13.10;70.90;;;;;;5004529;28;20522;-48
2021/05/15 00:52:34;;;;;;;1.70;1.50;;;13.20;71.20;;;;;;5012906;28;20533;-48
2021/05/15 00:55:05;;;;;;;1.50;1.27;;;13.20;70.90;;;;;;5010509;28;20454;-48
2021/05/15 00:57:30;;;;;;;1.27;1.00;;;13.20;71.00;;;;;;5006139;28;21216;-47
2021/05/15 00:59:56;;;;;;;1.77;1.10;;;13.20;71.30;;;;;;5013202;28;20574;-48
2021/05/15 01:02:22;;;;;;;3.10;1.80;;;13.20;71.20;;;;;;5005466;28;20214;-48
2021/05/15 01:04:47;;;;;;;1.63;1.17;;;13.20;71.20;;;;;;5011438;28;20255;-48
2021/05/15 01:07:14;;;;;;;1.00;0.90;;;13.20;71.20;;;;;;5014592;28;20663;-48
2021/05/15 01:09:39;;;;;;;1.60;1.20;;;13.30;71.20;;;;;;5012763;28;20579;-48
2021/05/15 01:12:08;;;;;;;1.20;1.10;;;13.30;71.20;;;;;;5022915;28;20475;-48
2021/05/15 01:14:38;;;;;;;1.30;1.20;;;13.30;71.00;;;;;;5005195;28;20189;-48
2021/05/15 01:17:09;;;;;;;1.70;1.60;;;13.30;71.10;;;;;;5003590;28;20854;-48
2021/05/15 01:19:35;;;;;;;1.20;1.10;;;13.30;71.20;;;;;;5007213;28;20456;-48
2021/05/15 01:22:11;;;;;;;2.07;1.40;;;13.30;71.10;;;;;;5024601;28;20459;-48
2021/05/15 01:24:38;;;;;;;1.30;1.00;;;13.30;70.90;;;;;;5004282;28;20448;-48
2021/05/15 01:27:09;;;;;;;1.47;1.07;;;13.30;70.90;;;;;;5006441;28;20858;-48
2021/05/15 01:29:35;;;;;;;3.27;1.43;;;13.30;71.00;;;;;;5007602;28;20547;-48
2021/05/15 01:32:01;;;;;;;1.27;1.17;;;13.30;71.10;;;;;;5021958;28;20473;-48
2021/05/15 01:34:27;;;;;;;1.73;1.20;;;13.30;71.00;;;;;;5003612;28;20459;-48
2021/05/15 01:36:53;;;;;;;2.10;1.40;;;13.30;70.80;;;;;;5023463;28;20440;-48
2021/05/15 01:39:19;;;;;;;1.60;1.37;;;13.30;70.70;;;;;;5005401;28;20206;-48
2021/05/15 01:41:45;;;;;;;2.37;1.13;;;13.30;70.90;;;;;;5009176;28;20455;-48
2021/05/15 01:44:11;;;;;;;1.40;1.30;;;13.20;71.10;;;;;;5006271;28;20487;-47
2021/05/15 01:46:37;;;;;;;2.60;1.20;;;13.20;71.10;;;;;;5006334;28;20457;-48
2021/05/15 01:49:05;;;;;;;1.90;1.80;;;13.20;71.10;;;;;;5005774;28;20612;-48
2021/05/15 01:51:31;;;;;;;0.80;0.80;;;13.20;71.30;;;;;;5007620;28;20840;-48
2021/05/15 01:53:57;;;;;;;1.43;1.33;;;13.10;71.50;;;;;;5018043;28;20527;-48
2021/05/15 01:56:28;;;;;;;0.77;0.70;;;13.10;71.70;;;;;;5004004;28;20540;-48
2021/05/15 01:58:54;;;;;;;1.20;1.10;;;13.10;71.70;;;;;;5004792;28;20211;-48
2021/05/15 02:01:21;;;;;;;1.33;1.10;;;13.10;71.50;;;;;;5010788;28;20929;-48
2021/05/15 02:03:47;;;;;;;1.00;0.90;;;13.10;71.10;;;;;;5005163;28;20206;-48
2021/05/15 02:06:13;;;;;;;1.10;1.00;;;13.10;71.10;;;;;;5004349;28;20834;-48
2021/05/15 02:08:41;;;;;;;1.07;0.90;;;13.10;71.10;;;;;;5008087;28;20945;-48
2021/05/15 02:11:08;;;;;;;0.83;0.83;;;13.10;71.10;;;;;;5006202;28;20771;-48
2021/05/15 02:13:34;;;;;;;1.30;1.00;;;13.20;70.80;;;;;;5004336;28;20540;-48
2021/05/15 02:16:01;;;;;;;2.50;1.10;;;13.10;70.80;;;;;;5006413;28;20563;-48
2021/05/15 02:18:27;;;;;;;1.40;1.17;;;13.10;71.10;;;;;;5008832;28;20217;-48
2021/05/15 02:20:54;;;;;;;1.10;1.00;;;13.00;71.30;;;;;;5006420;28;20471;-48
2021/05/15 02:23:20;;;;;;;1.57;0.93;;;13.00;71.40;;;;;;5005120;28;20448;-48
2021/05/15 02:25:48;;;;;;;3.30;1.10;;;13.00;71.40;;;;;;5006574;28;20485;-48
2021/05/15 02:28:15;;;;;;;2.47;2.27;;;12.90;71.50;;;;;;5002815;28;20475;-48
2021/05/15 02:30:41;;;;;;;2.27;1.07;;;12.90;71.60;;;;;;5003152;28;20481;-48
2021/05/15 02:33:07;;;;;;;0.90;0.90;;;12.90;71.70;;;;;;5022093;28;20436;-48
2021/05/15 02:35:33;;;;;;;1.17;1.03;;;13.00;71.80;;;;;;5005785;28;20444;-48
2021/05/15 02:37:59;;;;;;;1.30;1.00;;;13.00;71.70;;;;;;5006855;28;20433;-48
2021/05/15 02:40:25;;;;;;;1.57;1.47;;;13.10;71.70;;;;;;5003474;28;20792;-48
2021/05/15 02:42:51;;;;;;;2.50;1.20;;;13.10;71.60;;;;;;5004463;28;20667;-48
2021/05/15 02:45:22;;;;;;;1.20;1.10;;;13.10;71.70;;;;;;5005265;28;20205;-48
2021/05/15 02:47:50;;;;;;;1.40;1.13;;;13.00;72.00;;;;;;5005034;28;20527;-48
2021/05/15 02:50:17;;;;;;;2.30;1.40;;;13.00;72.00;;;;;;5005720;28;20793;-47
2021/05/15 02:52:43;;;;;;;2.20;1.50;;;13.00;72.00;;;;;;5002873;28;20472;-47
2021/05/15 02:55:12;;;;;;;2.10;1.13;;;13.00;72.10;;;;;;5005091;28;20452;-47
2021/05/15 02:57:38;;;;;;;1.30;1.20;;;12.90;72.20;;;;;;5005627;28;20542;-47
2021/05/15 03:00:07;;;;;;;1.63;1.53;;;13.00;72.30;;;;;;5006138;28;20472;-49
2021/05/15 03:02:33;;;;;;;2.07;1.87;;;13.00;72.30;;;;;;5004679;28;20522;-46
2021/05/15 03:04:59;;;;;;;1.67;1.57;;;12.90;72.50;;;;;;5008662;28;20973;-46
2021/05/15 03:07:25;;;;;;;2.70;1.37;;;12.90;72.60;;;;;;5003148;28;20193;-46
2021/05/15 03:09:50;;;;;;;1.50;1.40;;;13.00;72.70;;;;;;5004764;28;20207;-46
2021/05/15 03:12:16;;;;;;;1.40;1.30;;;13.00;72.60;;;;;;5000765;28;20224;-46
2021/05/15 03:14:42;;;;;;;1.40;1.30;;;12.90;72.60;;;;;;5005819;28;20201;-46
2021/05/15 03:17:09;;;;;;;2.47;1.63;;;12.90;72.80;;;;;;5003460;28;20725;-46
2021/05/15 03:19:35;;;;;;;1.70;1.60;;;12.90;72.80;;;;;;5005445;28;20666;-46
2021/05/15 03:22:01;;;;;;;1.50;1.40;;;12.90;72.80;;;;;;5004876;28;20452;-46
2021/05/15 03:24:26;;;;;;;2.20;2.10;;;13.00;72.80;;;;;;5005937;28;20194;-46
2021/05/15 03:26:52;;;;;;;2.90;1.63;;;13.00;72.90;;;;;;5003950;28;20673;-46
2021/05/15 03:29:18;;;;;;;1.93;1.67;;;13.00;73.00;;;;;;5005432;28;20224;-46
2021/05/15 03:31:43;;;;;;;3.07;2.00;;;12.90;73.10;;;;;;5004822;28;20568;-46
2021/05/15 03:34:09;;;;;;;3.60;2.10;;;12.90;73.30;;;;;;5020371;28;20194;-46
2021/05/15 03:36:35;;;;;;;1.43;1.30;;;12.80;73.40;;;;;;5006512;28;20192;-46
2021/05/15 03:39:03;;;;;;;1.70;1.60;;;12.80;73.50;;;;;;5002322;28;20264;-46
2021/05/15 03:41:28;;;;;;;1.83;1.60;;;12.80;73.60;;;;;;5006120;28;20475;-46
2021/05/15 03:43:54;;;;;;;3.17;2.07;;;12.80;73.50;;;;;;5001672;28;20452;-46
2021/05/15 03:46:20;;;;;;;2.03;1.80;;;12.80;73.60;;;;;;5009088;28;20197;-46
2021/05/15 03:48:45;;;;;;;2.30;2.10;;;12.80;73.60;;;;;;5010487;28;20204;-46
2021/05/15 03:51:13;;;;;;;2.90;2.10;;;12.90;73.60;;;;;;5005410;28;20694;-46
2021/05/15 03:53:39;;;;;;;1.80;1.70;;;12.80;73.70;;;;;;5007738;28;20194;-46
2021/05/15 03:56:04;;;;;;;1.83;1.73;;;12.80;73.70;;;;;;5007033;28;20941;-46
2021/05/15 03:58:30;;;;;;;1.60;1.50;;;12.80;73.70;;;;;;5012620;28;20182;-46
2021/05/15 04:00:56;;;;;;;2.37;2.17;;;12.90;73.50;;;;;;5009339;28;20597;-46
2021/05/15 04:03:21;;;;;;;1.60;1.50;;;12.90;73.50;;;;;;5007775;28;20200;-46
2021/05/15 04:05:47;;;;;;;1.80;1.70;;;12.80;73.70;;;;;;5007936;28;20297;-46
2021/05/15 04:08:13;;;;;;;2.33;2.13;;;12.80;73.60;;;;;;5006861;28;20250;-46
2021/05/15 04:10:38;;;;;;;3.30;1.80;;;12.90;73.60;;;;;;5006462;28;20604;-46
2021/05/15 04:13:15;;;;;;;2.00;1.90;;;12.80;73.60;;;;;;5024286;28;20639;-46
2021/05/15 04:15:46;;;;;;;2.00;1.90;;;12.80;73.70;;;;;;5008664;28;20209;-46
2021/05/15 04:18:13;;;;;;;4.37;2.30;;;12.80;73.70;;;;;;5006259;28;20464;-46
2021/05/15 04:20:43;;;;;;;2.40;2.20;;;12.80;73.80;;;;;;5005518;28;20453;-47
2021/05/15 04:23:10;;;;;;;2.20;2.10;;;12.80;73.90;;;;;;5006242;28;20996;-46
2021/05/15 04:25:36;;;;;;;3.13;1.83;;;12.80;73.90;;;;;;5009273;28;20495;-46
2021/05/15 04:28:04;;;;;;;1.80;1.70;;;12.80;73.90;;;;;;5006250;28;20448;-47
2021/05/15 04:30:30;;;;;;;2.40;2.20;;;12.80;73.90;;;;;;5022867;28;20486;-46
2021/05/15 04:32:56;;;;;;;4.03;2.30;;;12.90;73.80;;;;;;5008797;28;20448;-46
2021/05/15 04:35:22;;;;;;;4.50;2.53;;;12.90;73.80;;;;;;5006647;28;20236;-46
2021/05/15 04:37:48;;;;;;;2.60;2.40;;;12.90;73.80;;;;;;5009331;28;20487;-46
2021/05/15 04:40:14;;;;;;;2.90;2.63;;;13.00;73.60;;;;;;5008071;28;20437;-46
2021/05/15 04:42:40;;;;;;;3.90;3.00;;;13.00;73.90;;;;;;5005475;28;20873;-46
2021/05/15 04:45:11;;;;;;;3.00;2.80;;;13.00;74.30;;;;;;5009686;28;20539;-46
2021/05/15 04:47:37;;;;;;;3.33;3.07;;;13.00;74.20;;;;;;5007065;28;20655;-46
2021/05/15 04:50:04;;;;;;;3.20;2.67;;;13.00;74.50;;;;;;5023538;28;20452;-46
2021/05/15 04:52:30;;;;;;;6.00;3.57;;;13.00;74.60;;;;;;5004993;28;20552;-46
2021/05/15 04:54:55;;;;;;;4.20;3.20;;;13.00;74.60;;;;;;5007689;28;20483;-46
2021/05/15 04:57:21;;;;;;;5.10;2.87;;;13.00;74.30;;;;;;5010456;28;20565;-46
2021/05/15 04:59:47;;;;;;;4.30;3.40;;;12.90;74.50;;;;;;5009057;28;20198;-46
2021/05/15 05:02:13;;;;;;;4.17;3.17;;;13.00;74.70;;;;;;5023871;28;20655;-46
2021/05/15 05:04:40;;;;;;;3.57;3.27;;;13.00;74.60;;;;;;5007601;28;20212;-46
2021/05/15 05:07:06;;;;;;;3.10;2.83;;;13.00;74.30;;;;;;5010539;28;20189;-46
2021/05/15 05:09:32;;;;;;;3.67;3.07;;;13.10;74.20;;;;;;5011240;28;20437;-47
2021/05/15 05:11:58;;;;;;;3.77;3.47;;;13.20;73.70;;;;;;5009569;28;20766;-46
2021/05/15 05:14:24;;;;;;;3.90;3.60;;;13.20;73.70;;;;;;5004435;28;20193;-46
2021/05/15 05:16:50;;;;;;;3.60;3.30;;;13.20;73.80;;;;;;5006575;28;20317;-46
2021/05/15 05:19:18;;;;;;;3.63;3.33;;;13.20;74.00;;;;;;5010890;28;20450;-46
2021/05/15 05:21:46;;;;;;;3.50;3.20;;;13.30;73.80;;;;;;5008484;28;20970;-46
2021/05/15 05:24:12;;;;;;;3.70;3.40;;;13.30;73.40;;;;;;5010258;28;20456;-46
2021/05/15 05:26:38;;;;;;;4.77;3.80;;;13.30;73.40;;;;;;5009813;28;20494;-46
2021/05/15 05:29:09;;;;;;;4.53;3.70;;;13.20;73.40;;;;;;5007314;28;20349;-46
2021/05/15 05:31:39;;;;;;;3.83;3.43;;;13.20;73.10;;;;;;5006979;28;20488;-46
2021/05/15 05:34:06;;;;;;;3.93;3.63;;;13.30;72.90;;;;;;5005447;28;20444;-46
2021/05/15 05:36:33;;;;;;;4.50;4.10;;;13.20;73.00;;;;;;5009009;28;20511;-46
2021/05/15 05:38:59;;;;;;;4.20;3.80;;;13.20;73.00;;;;;;5004511;28;20451;-46
2021/05/15 05:41:25;;;;;;;5.00;3.30;;;13.30;73.10;;;;;;5006984;28;20802;-46
2021/05/15 05:43:51;;;;;;;5.07;4.00;;;13.30;72.70;;;;;;5007252;28;20201;-46
2021/05/15 05:46:17;;;;;;;3.67;3.37;;;13.30;72.70;;;;;;5007283;28;20472;-46
2021/05/15 05:48:43;;;;;;;3.73;3.43;;;13.30;72.50;;;;;;5007878;28;20444;-46
2021/05/15 05:51:09;;;;;;;4.20;3.90;;;13.40;72.10;;;;;;5002847;28;20917;-46
2021/05/15 05:53:35;;;;;;;6.10;3.90;;;13.40;72.20;;;;;;5002004;28;20194;-46
2021/05/15 05:56:00;;;;;;;3.80;3.50;;;13.40;71.80;;;;;;5004749;28;20194;-46
2021/05/15 05:58:26;;;;;;;4.37;3.87;;;13.40;72.20;;;;;;5004821;28;20518;-46
2021/05/15 06:00:52;;;;;;;4.90;4.37;;;13.40;72.40;;;;;;5003586;28;20206;-46
2021/05/15 06:03:17;;;;;;;6.60;4.03;;;13.50;71.90;;;;;;5004301;28;20225;-46
2021/05/15 06:05:43;;;;;;;4.13;3.73;;;13.50;71.90;;;;;;5006099;28;20213;-46
2021/05/15 06:08:10;;;;;;;4.77;4.37;;;13.60;72.00;;;;;;5020684;28;20674;-47
2021/05/15 06:10:37;;;;;;;7.43;5.60;;;13.70;71.30;;;;;;5005394;28;20640;-47
2021/05/15 06:13:06;;;;;;;6.60;6.00;;;13.70;71.20;;;;;;5004288;28;20558;-46
2021/05/15 06:15:32;;;;;;;4.77;4.20;;;13.70;71.40;;;;;;5007813;28;20492;-47
2021/05/15 06:17:58;;;;;;;5.07;3.97;;;13.80;71.20;;;;;;5007046;28;20520;-46
2021/05/15 06:20:24;;;;;;;4.50;4.10;;;13.80;71.10;;;;;;5008587;28;20535;-46
2021/05/15 06:22:49;;;;;;;4.90;3.93;;;13.80;71.20;;;;;;5006147;28;20204;-46
2021/05/15 06:25:18;;;;;;;4.47;4.07;;;13.80;70.70;;;;;;5001510;28;20202;-46
2021/05/15 06:27:44;;;;;;;5.60;4.10;;;13.80;70.80;;;;;;5004828;28;20600;-46
2021/05/15 06:30:13;;;;;;;5.80;5.13;;;13.90;70.50;;;;;;5005263;28;20445;-46
2021/05/15 06:32:38;;;;;;;5.30;4.83;;;14.00;70.50;;;;;;5007117;28;20198;-47
2021/05/15 06:35:05;;;;;;;5.10;4.30;;;14.00;70.10;;;;;;5004336;28;20453;-46
2021/05/15 06:37:30;;;;;;;7.20;4.80;;;14.10;69.50;;;;;;5006914;28;20233;-46
2021/05/15 06:39:56;;;;;;;5.80;5.30;;;14.20;69.60;;;;;;5000708;28;20917;-46
2021/05/15 06:42:21;;;;;;;5.87;5.37;;;14.30;69.50;;;;;;5005345;28;20200;-46
2021/05/15 06:44:48;;;;;;;7.30;5.40;;;14.30;68.90;;;;;;5008916;28;21067;-46
2021/05/15 06:47:15;;;;;;;5.10;4.60;;;14.40;68.80;;;;;;5006182;28;20206;-46
2021/05/15 06:49:43;;;;;;;4.77;4.37;;;14.50;68.70;;;;;;5006791;28;20444;-46
2021/05/15 06:52:09;;;;;;;5.90;5.30;;;14.60;67.40;;;;;;5001549;28;20547;-46
2021/05/15 06:54:35;;;;;;;4.73;4.23;;;14.60;67.80;;;;;;5005883;28;21513;-46
2021/05/15 06:57:00;;;;;;;5.07;4.67;;;14.60;67.60;;;;;;5003956;28;21916;-46
2021/05/15 06:59:26;;;;;;;5.00;4.50;;;14.60;67.40;;;;;;5006127;28;20547;-46
2021/05/15 07:01:52;;;;;;;5.50;4.97;;;14.60;67.00;;;;;;5007162;28;20705;-46
2021/05/15 07:04:17;;;;;;;5.17;4.73;;;14.50;67.40;;;;;;5002871;28;20241;-46
2021/05/15 07:06:44;;;;;;;6.57;5.40;;;14.50;67.80;;;;;;4999615;28;20192;-46
2021/05/15 07:09:10;;;;;;;5.70;4.20;;;14.50;68.20;;;;;;5007540;28;20236;-46
2021/05/15 07:11:38;;;;;;;5.50;4.47;;;14.60;67.20;;;;;;5003209;28;20468;-46
2021/05/15 07:14:04;;;;;;;5.00;4.50;;;14.60;66.60;;;;;;4987350;28;20216;-46
2021/05/15 07:16:30;;;;;;;6.10;4.20;;;14.60;66.60;;;;;;5002483;28;20546;-46
2021/05/15 07:18:55;;;;;;;5.57;4.30;;;14.60;66.40;;;;;;5006064;28;20494;-46
2021/05/15 07:21:21;;;;;;;4.33;3.93;;;14.60;66.30;;;;;;5005311;28;20638;-47
2021/05/15 07:23:47;;;;;;;5.87;3.93;;;14.70;66.40;;;;;;5002570;28;20210;-46
2021/05/15 07:26:12;;;;;;;4.90;4.40;;;14.90;66.70;;;;;;5005496;28;20228;-46
2021/05/15 07:28:38;;;;;;;4.13;3.83;;;15.10;64.90;;;;;;5006726;28;20300;-46
2021/05/15 07:31:04;;;;;;;4.27;3.87;;;15.20;63.60;;;;;;5009423;28;20233;-46
2021/05/15 07:33:30;;;;;;;7.53;4.50;;;15.20;64.50;;;;;;5008728;28;20530;-46
2021/05/15 07:35:55;;;;;;;4.63;4.23;;;15.20;63.30;;;;;;5012890;28;20443;-46
2021/05/15 07:38:22;;;;;;;4.43;4.03;;;15.10;63.90;;;;;;5010447;28;20403;-46
2021/05/15 07:40:51;;;;;;;4.63;4.27;;;15.10;63.60;;;;;;5010620;28;20232;-47
2021/05/15 07:43:22;;;;;;;7.43;4.20;;;15.20;64.00;;;;;;5042033;28;20451;-46
2021/05/15 07:45:55;;;;;;;4.77;4.30;;;15.20;62.60;;;;;;5009700;28;20526;-46
2021/05/15 07:55:56;;;;;;;5.57;5.03;;;15.30;63.30;;;;;;4968870;28;20472;-48
2021/05/15 07:58:22;;;;;;;5.30;4.90;;;15.30;62.90;;;;;;4972125;28;20489;-48
2021/05/15 08:00:49;;;;;;;5.37;4.87;;;15.30;62.30;;;;;;4975260;28;20675;-48
2021/05/15 08:03:15;;;;;;;5.10;4.60;;;15.30;62.60;;;;;;4979538;28;20449;-48
2021/05/15 08:05:42;;;;;;;6.43;5.03;;;15.30;63.00;;;;;;4977429;28;20521;-47
2021/05/15 08:08:08;;;;;;;8.27;5.47;;;15.40;63.20;;;;;;4971426;28;20490;-48
2021/05/15 08:10:35;;;;;;;5.70;5.20;;;15.40;61.70;;;;;;4975066;28;20455;-48
2021/05/15 08:13:02;;;;;;;9.40;5.40;;;15.50;61.60;;;;;;4975866;28;20473;-47
2021/05/15 08:15:29;;;;;;;6.10;5.60;;;15.60;61.70;;;;;;4972798;28;20973;-48
2021/05/15 08:17:56;;;;;;;5.77;5.17;;;15.70;61.60;;;;;;4976025;28;20613;-48
2021/05/15 08:20:23;;;;;;;6.23;5.63;;;15.70;62.20;;;;;;4972817;28;20445;-48
2021/05/15 08:22:50;;;;;;;5.10;4.50;;;15.80;62.30;;;;;;4978003;28;20463;-48
2021/05/15 08:25:19;;;;;;;6.10;5.27;;;15.90;61.90;;;;;;4979066;28;20457;-48
2021/05/15 08:27:51;;;;;;;8.10;5.30;;;15.90;61.50;;;;;;4979337;28;20442;-47
2021/05/15 08:30:18;;;;;;;7.03;5.50;;;16.00;61.20;;;;;;4972886;28;20450;-47
2021/05/15 08:32:46;;;;;;;6.50;5.67;;;16.00;59.90;;;;;;4977476;28;20515;-47
2021/05/15 08:35:14;;;;;;;8.17;6.00;;;16.10;59.80;;;;;;4980136;28;20512;-47
2021/05/15 08:37:41;;;;;;;7.10;6.17;;;16.00;60.50;;;;;;4979015;28;20464;-47
2021/05/15 08:40:09;;;;;;;11.00;6.23;;;16.00;60.70;;;;;;4975463;28;20473;-47
2021/05/15 08:42:37;;;;;;;11.20;5.90;;;16.00;60.20;;;;;;4975773;28;20517;-47
2021/05/15 08:45:05;;;;;;;8.33;5.53;;;15.90;61.00;;;;;;4971206;28;20465;-47
2021/05/15 08:47:36;;;;;;;8.93;5.27;;;15.90;61.30;;;;;;4977739;28;20442;-47
2021/05/15 08:50:07;;;;;;;8.80;5.60;;;15.80;61.70;;;;;;4974918;28;20950;-47
2021/05/15 08:52:42;;;;;;;6.90;4.47;;;15.90;62.30;;;;;;4961282;28;20494;-47
2021/05/15 08:55:15;;;;;;;6.73;4.40;;;15.90;61.50;;;;;;4954504;28;20961;-47
2021/05/15 08:57:42;;;;;;;4.53;4.13;;;15.90;61.70;;;;;;4959636;28;20449;-47
2021/05/15 09:00:21;;;;;;;4.40;4.00;;;15.80;61.60;;;;;;4960590;28;20442;-47
2021/05/15 09:02:50;;;;;;;4.90;4.37;;;15.90;62.10;;;;;;4954921;28;20985;-47
2021/05/15 09:05:21;;;;;;;4.20;3.90;;;15.90;61.60;;;;;;4955206;28;20468;-47
2021/05/15 09:07:52;;;;;;;3.80;3.40;;;16.00;60.90;;;;;;4956127;28;20471;-47
2021/05/15 09:10:23;;;;;;;4.37;3.37;;;16.00;61.20;;;;;;4958170;28;20939;-47
2021/05/15 09:13:10;;;;;;;4.50;4.10;;;15.90;61.70;;;;;;4950087;28;20464;-47
2021/05/15 09:16:00;;;;;;;3.73;3.43;;;16.00;62.00;;;;;;4956813;28;20474;-47
2021/05/15 09:18:29;;;;;;;4.70;3.70;;;16.00;62.00;;;;;;4956542;28;21119;-47
2021/05/15 09:21:02;;;;;;;5.80;4.30;;;15.80;62.60;;;;;;4958411;28;20482;-47
2021/05/15 09:23:36;;;;;;;4.13;3.63;;;15.80;64.50;;;;;;4956280;28;20459;-47
2021/05/15 09:26:13;;;;;;;4.37;3.70;;;15.80;64.30;;;;;;4956472;28;20458;-47
2021/05/15 09:28:50;;;;;;;6.33;3.63;;;15.80;63.30;;;;;;4958851;28;20989;-47
2021/05/15 09:31:42;;;;;;;3.60;3.07;;;15.80;63.60;;;;;;4953337;28;20494;-47
2021/05/15 09:34:10;;;;;;;4.30;2.83;;;15.80;63.60;;;;;;4953001;28;20459;-47
2021/05/15 09:36:43;;;;;;;2.73;2.53;;;15.90;62.60;;;;;;4960099;28;20959;-47
2021/05/15 09:39:18;;;;;;;4.97;3.33;;;16.10;62.50;;;;;;4959410;28;20886;-47
2021/05/15 09:41:58;;;;;;;2.43;2.23;;;16.20;62.00;;;;;;4952734;28;20961;-47
2021/05/15 09:44:36;;;;;;;2.83;2.63;;;16.20;62.60;;;;;;4956434;28;20467;-47
2021/05/15 09:47:05;;;;;;;3.70;3.07;;;16.30;61.80;;;;;;4955583;28;20982;-47
2021/05/15 09:49:37;;;;;;;3.67;2.97;;;16.30;61.90;;;;;;4953494;28;20927;-47
2021/05/15 09:52:07;;;;;;;3.37;3.00;;;16.30;61.70;;;;;;4952045;28;20510;-47
2021/05/15 09:54:42;;;;;;;3.30;2.70;;;16.30;61.50;;;;;;4948918;28;20467;-47
2021/05/15 09:57:17;;;;;;;3.47;3.17;;;16.40;62.40;;;;;;4955959;28;20485;-47
2021/05/15 09:59:49;;;;;;;4.33;2.57;;;16.30;63.00;;;;;;4950102;28;20478;-47
2021/05/15 10:02:20;;;;;;;2.80;2.37;;;16.30;64.30;;;;;;4954406;28;20471;-47
2021/05/15 10:04:51;;;;;;;2.20;2.00;;;16.30;63.70;;;;;;4956924;28;20815;-47
2021/05/15 10:07:29;;;;;;;2.80;2.60;;;16.20;64.30;;;;;;4956536;28;20718;-47
2021/05/15 10:10:01;;;;;;;2.60;2.40;;;16.20;66.50;;;;;;4952981;28;20820;-47
2021/05/15 10:12:30;;;;;;;3.00;2.30;;;16.20;67.70;;;;;;4953175;28;20832;-47
2021/05/15 10:14:59;;;;;;;2.97;2.40;;;16.20;68.40;;;;;;4953826;28;20470;-47
2021/05/15 10:17:28;;;;;;;2.47;2.30;;;16.20;68.40;;;;;;4956072;28;20457;-47
2021/05/15 10:19:57;;;;;;;2.40;2.03;;;16.10;69.10;;;;;;4955640;28;20466;-47
2021/05/15 10:22:27;;;;;;;2.70;2.10;;;16.10;69.00;;;;;;4955130;28;20463;-47
2021/05/15 10:24:55;;;;;;;4.40;2.47;;;16.10;68.70;;;;;;4949829;28;20474;-47
2021/05/15 10:27:23;;;;;;;3.10;2.10;;;15.90;69.20;;;;;;4956454;28;21003;-47
2021/05/15 10:29:53;;;;;;;2.43;2.23;;;15.80;69.80;;;;;;4955686;28;20463;-47
2021/05/15 10:32:30;;;;;;;3.40;2.00;;;15.80;70.40;;;;;;4950183;28;20491;-47
2021/05/15 10:35:08;;;;;;;2.00;1.90;;;15.80;70.60;;;;;;4953511;28;20459;-47
2021/05/15 10:37:43;;;;;;;1.80;1.70;;;15.80;71.50;;;;;;4952398;28;21010;-47
2021/05/15 10:40:16;;;;;;;2.10;1.50;;;15.70;70.50;;;;;;4955076;28;20466;-47
2021/05/15 10:42:44;;;;;;;3.97;2.50;;;15.70;70.40;;;;;;4955016;28;20458;-47
2021/05/15 10:45:13;;;;;;;2.33;2.13;;;15.60;71.40;;;;;;4956925;28;20455;-47
2021/05/15 10:47:42;;;;;;;2.77;2.20;;;15.50;71.80;;;;;;4954926;28;20482;-47
2021/05/15 10:50:21;;;;;;;2.50;1.90;;;15.60;72.80;;;;;;4954441;28;20462;-47
2021/05/15 10:52:51;;;;;;;2.70;2.03;;;15.60;72.20;;;;;;4950132;28;20510;-47
2021/05/15 10:55:31;;;;;;;2.10;2.00;;;15.70;71.50;;;;;;4953431;28;20976;-47
2021/05/15 10:58:13;;;;;;;2.10;1.90;;;15.70;71.40;;;;;;4948451;28;20983;-47
2021/05/15 11:00:42;;;;;;;2.00;1.90;;;15.80;71.00;;;;;;4959477;28;20455;-47
2021/05/15 11:03:09;;;;;;;1.70;1.60;;;15.80;71.90;;;;;;4956514;28;20490;-47
2021/05/15 11:05:45;;;;;;;1.60;1.50;;;16.00;71.70;;;;;;4956274;28;20463;-47
2021/05/15 11:08:26;;;;;;;1.40;1.30;;;16.20;69.70;;;;;;4960064;28;20462;-48
2021/05/15 11:11:05;;;;;;;2.40;2.07;;;16.30;67.90;;;;;;4959485;28;20486;-47
2021/05/15 11:13:49;;;;;;;1.77;1.53;;;16.40;67.50;;;;;;4961481;28;20957;-47
2021/05/15 11:16:17;;;;;;;1.83;1.73;;;16.50;66.40;;;;;;4956592;28;20461;-47
2021/05/15 11:18:45;;;;;;;1.60;1.40;;;16.50;67.00;;;;;;4956732;28;20465;-47
2021/05/15 11:21:14;;;;;;;3.73;1.97;;;16.50;67.50;;;;;;4958022;28;20482;-47
2021/05/15 11:23:50;;;;;;;1.57;1.20;;;16.50;66.50;;;;;;4956360;28;20468;-47
2021/05/15 11:26:21;;;;;;;2.63;1.47;;;16.50;66.30;;;;;;4956806;28;20458;-47
2021/05/15 11:29:01;;;;;;;1.77;1.40;;;16.70;65.90;;;;;;4957680;28;20473;-47
2021/05/15 11:31:36;;;;;;;1.53;1.43;;;16.80;66.10;;;;;;4953699;28;21019;-47
2021/05/15 11:34:16;;;;;;;1.60;1.40;;;16.90;63.40;;;;;;4957266;28;20461;-47
2021/05/15 11:36:44;;;;;;;3.27;1.60;;;16.90;62.90;;;;;;4958546;28;20453;-47
2021/05/15 11:39:12;;;;;;;1.60;1.10;;;17.00;62.50;;;;;;4955614;28;20458;-47
2021/05/15 11:41:41;;;;;;;1.60;1.50;;;17.10;61.40;;;;;;4956334;28;20462;-47
2021/05/15 11:44:09;;;;;;;2.87;2.13;;;17.10;61.70;;;;;;4953131;28;20898;-47
2021/05/15 11:46:45;;;;;;;1.70;1.60;;;17.00;62.60;;;;;;4956477;28;20487;-47
2021/05/15 11:49:22;;;;;;;3.03;1.80;;;17.00;63.00;;;;;;4958420;28;20466;-47
2021/05/15 11:52:05;;;;;;;2.93;1.20;;;17.00;62.50;;;;;;4952251;28;20506;-47
2021/05/15 11:54:35;;;;;;;1.20;1.10;;;17.10;61.90;;;;;;4956397;28;21075;-47
2021/05/15 11:57:04;;;;;;;1.67;1.30;;;17.20;61.10;;;;;;4953606;28;20470;-47
2021/05/15 11:59:32;;;;;;;1.30;1.20;;;17.30;60.80;;;;;;4957986;28;20807;-47
2021/05/15 12:02:00;;;;;;;2.30;1.47;;;17.30;60.60;;;;;;4957663;28;20482;-47
2021/05/15 12:04:30;;;;;;;3.50;1.30;;;17.30;59.10;;;;;;4953728;28;20488;-47
2021/05/15 12:07:05;;;;;;;3.10;1.60;;;17.20;59.60;;;;;;4959171;28;20772;-47
2021/05/15 12:09:34;;;;;;;1.43;1.10;;;17.20;57.80;;;;;;4956675;28;20819;-47
2021/05/15 12:12:08;;;;;;;1.10;1.10;;;17.20;58.50;;;;;;4957511;28;20490;-47
2021/05/15 12:14:42;;;;;;;1.87;1.20;;;17.20;57.20;;;;;;4954768;28;20457;-47
2021/05/15 12:17:16;;;;;;;1.87;1.70;;;17.20;56.80;;;;;;4962548;28;20845;-47
2021/05/15 12:19:54;;;;;;;2.63;1.10;;;17.20;57.10;;;;;;4968891;28;20463;-47
2021/05/15 12:22:27;;;;;;;3.00;1.17;;;17.20;57.00;;;;;;4962393;28;20553;-47
2021/05/15 12:24:56;;;;;;;1.57;1.47;;;17.10;59.20;;;;;;4975121;28;20469;-47
2021/05/15 12:27:24;;;;;;;1.13;0.87;;;17.10;59.10;;;;;;4955252;28;20561;-47
2021/05/15 12:30:06;;;;;;;1.60;1.50;;;17.00;59.60;;;;;;4949486;28;20830;-47
2021/05/15 12:32:37;;;;;;;1.90;1.23;;;17.00;60.10;;;;;;4960373;28;20498;-47
2021/05/15 12:35:09;;;;;;;1.10;1.00;;;17.10;60.50;;;;;;4957750;28;20451;-46
2021/05/15 12:37:39;;;;;;;4.83;1.70;;;17.10;60.00;;;;;;4960367;28;20454;-46
2021/05/15 12:40:09;;;;;;;3.50;1.23;;;17.10;59.70;;;;;;4957905;28;20470;-46
2021/05/15 12:42:37;;;;;;;2.40;1.30;;;17.20;58.10;;;;;;4955288;28;20497;-46
2021/05/15 12:45:10;;;;;;;1.27;0.90;;;17.20;57.90;;;;;;4953173;28;20481;-46
2021/05/15 12:47:38;;;;;;;2.50;1.07;;;17.20;56.50;;;;;;4961158;28;20819;-46
2021/05/15 12:50:27;;;;;;;1.60;1.00;;;17.10;56.70;;;;;;4958608;28;20458;-46
2021/05/15 12:53:11;;;;;;;1.60;1.03;;;17.00;56.20;;;;;;4955568;28;20482;-46
2021/05/15 12:55:50;;;;;;;1.80;0.90;;;16.90;57.50;;;;;;4961507;28;20488;-46
2021/05/15 12:58:19;;;;;;;1.80;1.00;;;16.90;57.90;;;;;;4962110;28;20487;-46
2021/05/15 13:01:12;;;;;;;1.47;0.83;;;16.80;58.70;;;;;;4959131;28;20627;-46
2021/05/15 13:03:49;;;;;;;1.13;0.80;;;16.70;58.60;;;;;;4957174;28;20450;-46